Time;durP1;ratioP1;P1;durP2;ratioP2;P2;SDS_P1;SDS_P2;PMS_P1;PMS_P2;Temp;Humidity;BMP_temperature;BMP_pressure;BME280_temperature;BME280_humidity;BME280_pressure;Samples;Min_cycle;Max_cycle;Signal;HPM_P1;HPM_P2
2022/08/17 00:01:12;;;;;;;58.17;53.07;;;;;;;17.15;100.00;101022.81;2026274;71;26300;-74
2022/08/17 00:03:45;;;;;;;60.37;55.17;;;;;;;17.05;100.00;101027.31;2026338;71;24111;-73
2022/08/17 00:06:18;;;;;;;64.40;58.67;;;;;;;17.28;100.00;101022.67;1945304;73;24123;-74
2022/08/17 00:08:51;;;;;;;67.57;61.40;;;;;;;17.28;100.00;101022.67;1927627;74;26204;-74
2022/08/17 00:11:24;;;;;;;64.83;58.93;;;;;;;17.38;100.00;101012.28;1950196;73;24171;-74
2022/08/17 00:13:56;;;;;;;62.93;57.53;;;;;;;17.36;100.00;101020.23;1950182;73;24186;-74
2022/08/17 00:16:30;;;;;;;59.70;54.17;;;;;;;17.52;100.00;101027.86;1949947;73;24135;-74
2022/08/17 00:19:03;;;;;;;63.77;57.97;;;;;;;17.48;100.00;101025.45;1949966;73;24637;-73
2022/08/17 00:21:35;;;;;;;63.57;57.67;;;;;;;17.53;100.00;101025.31;1950103;73;24105;-73
2022/08/17 00:24:06;;;;;;;67.80;61.70;;;;;;;17.54;100.00;101015.70;1950095;73;24109;-73
2022/08/17 00:26:36;;;;;;;70.87;64.37;;;;;;;17.52;100.00;101011.01;1950082;73;24190;-73
2022/08/17 00:29:08;;;;;;;74.60;67.83;;;;;;;17.50;100.00;101012.50;1949415;73;26202;-73
2022/08/17 00:31:38;;;;;;;76.30;68.90;;;;;;;17.55;100.00;101017.37;1947098;74;26449;-73
2022/08/17 00:34:09;;;;;;;73.47;66.27;;;;;;;17.64;100.00;101011.79;1947163;73;26725;-73
2022/08/17 00:36:39;;;;;;;63.03;57.33;;;;;;;17.57;100.00;101002.43;1947188;74;24117;-73
2022/08/17 00:39:10;;;;;;;63.33;57.53;;;;;;;17.53;100.00;100996.39;1945138;74;24190;-73
2022/08/17 00:41:40;;;;;;;63.87;58.07;;;;;;;17.48;100.00;101008.61;1945107;74;24132;-73
2022/08/17 00:44:11;;;;;;;67.63;61.93;;;;;;;17.32;100.00;100996.77;1984044;72;24132;-73
2022/08/17 00:46:43;;;;;;;66.27;60.30;;;;;;;17.37;100.00;101006.45;1945256;74;24089;-74
2022/08/17 00:49:18;;;;;;;65.03;59.13;;;;;;;17.26;100.00;100995.51;1983973;72;24136;-74
2022/08/17 00:54:51;;;;;;;66.50;60.43;;;;;;;17.37;100.00;100995.22;2060089;69;27987;-74
2022/08/17 00:57:24;;;;;;;69.77;63.57;;;;;;;17.38;100.00;100990.66;1982066;72;24568;-74
2022/08/17 00:59:59;;;;;;;75.43;68.60;;;;;;;17.29;100.00;100991.20;1981927;72;26172;-74
2022/08/17 01:02:32;;;;;;;72.13;65.07;;;;;;;17.16;100.00;101007.03;1946866;74;24097;-74
2022/08/17 01:05:02;;;;;;;69.47;62.97;;;;;;;16.95;100.00;100998.12;1946970;74;24203;-74
2022/08/17 01:07:33;;;;;;;64.13;58.30;;;;;;;17.13;100.00;100997.87;1946785;74;24132;-74
2022/08/17 01:10:07;;;;;;;66.83;60.93;;;;;;;16.89;100.00;100995.23;1946867;74;24128;-74
2022/08/17 01:12:37;;;;;;;75.80;69.13;;;;;;;16.78;100.00;100998.88;1946815;74;26661;-75
2022/08/17 01:15:09;;;;;;;79.87;72.83;;;;;;;16.83;100.00;100999.57;1946899;74;24124;-74
2022/08/17 01:17:40;;;;;;;76.30;68.83;;;;;;;16.98;100.00;100998.89;1946876;74;24120;-74
2022/08/17 01:20:11;;;;;;;79.60;72.10;;;;;;;17.08;100.00;101002.22;1946800;74;24242;-74
2022/08/17 01:22:42;;;;;;;78.30;70.77;;;;;;;17.23;100.00;100993.36;1946979;74;24160;-74
2022/08/17 01:25:13;;;;;;;78.17;70.83;;;;;;;17.40;100.00;100990.34;1946743;74;24120;-74
2022/08/17 01:27:44;;;;;;;76.37;69.37;;;;;;;17.16;100.00;100996.37;1946753;74;26174;-74
2022/08/17 01:33:13;;;;;;;82.13;74.63;;;;;;;17.20;100.00;100984.17;2060129;69;27984;-73
2022/08/17 01:35:43;;;;;;;83.17;75.30;;;;;;;16.99;100.00;100992.94;1982056;72;24093;-73
2022/08/17 01:38:13;;;;;;;86.43;78.40;;;;;;;17.06;100.00;100997.52;1981882;72;26628;-73
2022/08/17 01:40:47;;;;;;;81.33;73.43;;;;;;;17.12;100.00;100999.58;1981850;72;24113;-74
2022/08/17 01:43:21;;;;;;;93.60;83.50;;;;;;;17.12;100.00;100999.58;1982084;72;26616;-73
2022/08/17 01:45:55;;;;;;;90.80;81.40;;;;;;;17.16;100.00;100989.36;1981924;72;24097;-73
2022/08/17 01:48:27;;;;;;;85.13;76.57;;;;;;;17.22;100.00;100981.05;1981626;72;24528;-73
2022/08/17 01:50:57;;;;;;;87.13;78.33;;;;;;;17.30;100.00;100978.26;1981990;72;26204;-73
2022/08/17 01:53:31;;;;;;;86.53;78.07;;;;;;;17.35;100.00;100973.06;1981881;72;26659;-73
2022/08/17 01:56:04;;;;;;;82.87;74.77;;;;;;;17.26;100.00;100968.00;1981824;72;26596;-73
2022/08/17 01:58:36;;;;;;;91.03;81.90;;;;;;;17.22;100.00;100965.61;1982048;72;24120;-73
2022/08/17 02:01:08;;;;;;;85.60;77.60;;;;;;;17.06;100.00;100959.63;1981892;72;26207;-73
2022/08/17 02:03:39;;;;;;;89.97;81.57;;;;;;;17.13;100.00;100968.39;1981858;72;26157;-73
2022/08/17 02:06:10;;;;;;;87.23;79.00;;;;;;;17.19;100.00;100962.89;1981755;72;24552;-73
2022/08/17 02:08:40;;;;;;;81.77;74.03;;;;;;;17.02;100.00;100969.03;1981749;72;26149;-73
2022/08/17 02:11:14;;;;;;;84.83;76.83;;;;;;;17.02;100.00;100983.06;1981727;72;26184;-72
2022/08/17 02:13:45;;;;;;;86.97;78.57;;;;;;;17.02;100.00;100986.70;1981805;72;26610;-72
2022/08/17 02:16:16;;;;;;;87.17;77.93;;;;;;;17.07;100.00;100992.14;1981956;72;24178;-74
2022/08/17 02:18:46;;;;;;;93.47;83.53;;;;;;;17.13;100.00;100992.83;1981826;72;24159;-72
2022/08/17 02:21:17;;;;;;;89.60;80.37;;;;;;;17.21;100.00;101004.66;1981566;72;26231;-72
2022/08/17 02:23:49;;;;;;;96.23;86.40;;;;;;;17.18;100.00;101011.76;1981616;72;24233;-74
2022/08/17 02:26:20;;;;;;;93.87;84.37;;;;;;;17.24;100.00;101014.64;1981993;72;24113;-72
2022/08/17 02:28:50;;;;;;;89.97;81.10;;;;;;;17.22;100.00;101016.97;1981506;72;24613;-72
2022/08/17 02:31:21;;;;;;;94.37;84.90;;;;;;;17.12;100.00;101014.45;1979475;72;26624;-73
2022/08/17 02:33:51;;;;;;;93.30;83.50;;;;;;;17.08;100.00;101016.25;1979681;72;24118;-74
2022/08/17 02:36:21;;;;;;;89.30;80.60;;;;;;;17.16;100.00;101035.67;1979799;72;24199;-74
2022/08/17 02:38:52;;;;;;;94.37;84.20;;;;;;;17.01;100.00;101028.53;1979756;72;26291;-74
2022/08/17 02:41:22;;;;;;;107.83;90.80;;;;;;;17.15;100.00;101032.06;1979835;72;24156;-74
2022/08/17 02:43:52;;;;;;;97.93;87.17;;;;;;;17.23;100.00;101034.64;1979267;72;26660;-74
2022/08/17 02:46:23;;;;;;;93.50;83.23;;;;;;;17.13;100.00;101030.72;1979065;72;24095;-74
2022/08/17 02:48:53;;;;;;;94.70;83.80;;;;;;;17.02;100.00;101026.56;1979009;72;26687;-74
2022/08/17 02:51:23;;;;;;;95.87;85.80;;;;;;;16.80;100.00;101021.27;1979100;72;24157;-74
2022/08/17 02:53:54;;;;;;;84.60;75.80;;;;;;;16.65;100.00;101024.47;1979023;72;26239;-75
2022/08/17 02:56:24;;;;;;;80.87;73.27;;;;;;;16.65;100.00;101019.44;1978974;72;26175;-74
2022/08/17 02:58:54;;;;;;;76.10;68.60;;;;;;;16.47;100.00;101021.88;1979134;72;24114;-74
2022/08/17 03:01:26;;;;;;;77.83;70.20;;;;;;;16.47;100.00;101021.88;1979069;72;26154;-74
2022/08/17 03:03:58;;;;;;;76.33;68.37;;;;;;;16.58;100.00;101029.72;1979142;72;26184;-74
2022/08/17 03:06:30;;;;;;;83.63;74.50;;;;;;;16.51;100.00;101027.93;1979014;72;26682;-72
2022/08/17 03:09:00;;;;;;;85.77;76.43;;;;;;;16.65;100.00;101025.88;1979453;72;26776;-73
2022/08/17 03:11:31;;;;;;;86.87;77.37;;;;;;;16.68;100.00;101025.83;1979115;72;26175;-73
2022/08/17 03:14:01;;;;;;;86.03;76.80;;;;;;;16.86;100.00;101040.77;1979133;72;26215;-69
2022/08/17 03:16:31;;;;;;;89.43;79.67;;;;;;;16.87;100.00;101050.25;1978940;72;24680;-69
2022/08/17 03:19:02;;;;;;;100.10;84.90;;;;;;;16.90;100.00;101058.02;1979120;72;26166;-69
2022/08/17 03:21:32;;;;;;;109.73;91.00;;;;;;;17.03;100.00;101061.91;1979161;72;26172;-70
2022/08/17 03:27:00;;;;;;;103.17;82.43;;;;;;;17.13;100.00;101038.56;2060348;69;28021;-71
2022/08/17 03:29:31;;;;;;;86.63;75.33;;;;;;;17.15;100.00;101053.69;2009052;71;26680;-71
2022/08/17 03:32:03;;;;;;;98.67;80.43;;;;;;;17.06;100.00;101054.23;1911212;75;26710;-71
2022/08/17 03:34:33;;;;;;;95.07;81.87;;;;;;;17.11;100.00;101050.71;1949744;73;24195;-71
2022/08/17 03:37:03;;;;;;;99.70;86.60;;;;;;;17.13;100.00;101053.17;1946769;73;24505;-71
2022/08/17 03:39:34;;;;;;;102.40;85.43;;;;;;;17.21;100.00;101049.57;1946906;74;24223;-71
2022/08/17 03:42:08;;;;;;;91.47;81.37;;;;;;;17.07;100.00;101046.06;1946809;74;26248;-70
2022/08/17 03:44:39;;;;;;;93.97;81.03;;;;;;;17.10;100.00;101056.64;1946755;74;26175;-74
2022/08/17 03:57:19;;;;;;;98.30;85.47;;;;;;;17.25;100.00;101064.04;1946753;74;26664;-74
2022/08/17 03:59:49;;;;;;;110.60;91.10;;;;;;;17.26;100.00;101063.47;1946854;74;26233;-74
2022/08/17 04:05:21;;;;;;;109.10;88.73;;;;;;;17.32;100.00;101050.95;2060161;69;25971;-75
2022/08/17 04:07:51;;;;;;;111.90;94.60;;;;;;;17.47;100.00;101043.45;1981870;72;26160;-75
2022/08/17 04:10:21;;;;;;;115.00;96.07;;;;;;;17.47;100.00;101043.45;1981875;72;26695;-76
2022/08/17 04:12:55;;;;;;;129.33;101.83;;;;;;;17.44;100.00;101048.91;1981928;72;24108;-75
2022/08/17 04:15:26;;;;;;;138.07;105.60;;;;;;;17.55;100.00;101063.71;1981939;72;24114;-75
2022/08/17 04:17:57;;;;;;;129.30;106.73;;;;;;;17.55;100.00;101063.71;1981866;72;24580;-73
2022/08/17 04:20:29;;;;;;;135.37;104.03;;;;;;;17.54;100.00;101064.86;1981776;72;24182;-73
2022/08/17 04:23:03;;;;;;;129.93;103.20;;;;;;;17.55;100.00;101062.31;1981873;72;24110;-73
2022/08/17 04:25:36;;;;;;;150.00;108.23;;;;;;;17.49;100.00;101049.59;1981797;72;24116;-73
2022/08/17 04:28:08;;;;;;;142.50;112.33;;;;;;;17.52;100.00;101041.91;1982032;72;24097;-74
2022/08/17 04:30:40;;;;;;;143.90;106.47;;;;;;;17.57;100.00;101042.33;1949030;72;24146;-73
2022/08/17 04:33:14;;;;;;;148.50;113.27;;;;;;;17.68;100.00;101041.71;1946805;74;24139;-73
2022/08/17 04:35:46;;;;;;;158.00;116.80;;;;;;;17.82;100.00;101046.36;1946967;74;26624;-73
2022/08/17 04:38:18;;;;;;;153.77;115.93;;;;;;;17.78;100.00;101039.17;1911279;75;24165;-74
2022/08/17 04:43:24;;;;;;;153.03;118.17;;;;;;;17.63;100.00;101042.44;1947006;74;24121;-75
2022/08/17 04:45:57;;;;;;;144.43;110.30;;;;;;;17.68;100.00;101039.47;1946808;73;24114;-74
2022/08/17 04:48:29;;;;;;;145.63;110.97;;;;;;;17.55;100.00;101034.22;1946781;73;24572;-74
2022/08/17 04:51:00;;;;;;;144.53;110.27;;;;;;;17.59;100.00;101018.97;1946894;74;24113;-74
2022/08/17 04:53:30;;;;;;;137.97;112.20;;;;;;;17.64;100.00;101032.86;1946862;74;24125;-74
2022/08/17 04:56:01;;;;;;;142.83;109.33;;;;;;;17.61;100.00;101025.93;1946768;73;24122;-74
2022/08/17 04:58:31;;;;;;;136.33;106.87;;;;;;;17.50;100.00;101018.92;1946858;73;24118;-74
2022/08/17 05:01:02;;;;;;;144.43;108.17;;;;;;;17.56;100.00;101031.66;1946852;74;24110;-74
2022/08/17 05:03:32;;;;;;;132.23;109.23;;;;;;;17.55;100.00;101030.58;1946738;73;26316;-73
2022/08/17 05:06:03;;;;;;;139.63;109.33;;;;;;;17.61;100.00;101031.55;1947007;73;24117;-74
2022/08/17 05:08:34;;;;;;;132.03;106.27;;;;;;;17.60;100.00;101036.08;1946946;74;24156;-74
2022/08/17 05:11:05;;;;;;;125.60;104.87;;;;;;;17.56;100.00;101026.05;1946840;73;24556;-74
2022/08/17 05:13:36;;;;;;;133.80;108.67;;;;;;;17.56;100.00;101026.05;1946800;74;26240;-73
2022/08/17 05:16:07;;;;;;;134.20;104.63;;;;;;;17.61;100.00;101027.91;1946260;73;24262;-73
2022/08/17 05:18:38;;;;;;;128.77;107.17;;;;;;;17.59;100.00;101031.03;1946225;73;26179;-73
2022/08/17 05:21:09;;;;;;;134.90;112.03;;;;;;;17.64;100.00;101035.09;1946210;74;24134;-73
2022/08/17 05:26:39;;;;;;;128.07;105.83;;;;;;;17.63;100.00;101036.81;2060264;69;25662;-73
2022/08/17 05:29:09;;;;;;;127.00;105.03;;;;;;;17.68;100.00;101050.72;1970870;72;24150;-73
2022/08/17 05:31:39;;;;;;;130.03;105.47;;;;;;;17.83;100.00;101048.02;1911373;75;24246;-73
2022/08/17 05:34:10;;;;;;;127.90;102.37;;;;;;;17.87;100.00;101050.42;1894732;76;24137;-73
2022/08/17 05:36:40;;;;;;;128.27;106.93;;;;;;;17.79;100.00;101053.48;1946840;74;24110;-74
2022/08/17 05:39:11;;;;;;;139.20;106.20;;;;;;;17.86;100.00;101053.80;1946807;74;24234;-73
2022/08/17 05:44:39;;;;;;;141.57;108.20;;;;;;;18.00;100.00;101054.48;2060205;69;25979;-74
2022/08/17 05:47:09;;;;;;;140.23;110.47;;;;;;;18.02;100.00;101073.23;2026263;71;24184;-74
2022/08/17 05:49:39;;;;;;;141.83;109.53;;;;;;;18.12;100.00;101079.12;2026209;71;24180;-74
2022/08/17 05:55:32;;;;;;;131.03;107.10;;;;;;;18.22;100.00;101071.77;2061606;69;28225;-74
2022/08/17 05:58:09;;;;;;;133.40;106.43;;;;;;;18.23;100.00;101081.84;2017427;70;26746;-74
2022/08/17 06:00:43;;;;;;;145.57;108.97;;;;;;;18.28;100.00;101087.30;2017223;71;24589;-73
2022/08/17 06:03:39;;;;;;;143.00;111.13;;;;;;;18.34;100.00;101087.97;1938326;74;24207;-73
2022/08/17 06:06:26;;;;;;;142.63;105.77;;;;;;;18.34;100.00;101094.42;2016978;71;24616;-74
2022/08/17 06:09:03;;;;;;;139.07;108.33;;;;;;;18.50;100.00;101089.11;1938380;74;24124;-74
2022/08/17 06:11:37;;;;;;;149.97;111.43;;;;;;;18.44;100.00;101096.08;2016108;71;24126;-74
2022/08/17 06:14:25;;;;;;;148.00;108.53;;;;;;;18.51;100.00;101094.98;2017144;71;24608;-74
2022/08/17 06:16:59;;;;;;;144.03;110.53;;;;;;;18.49;100.00;101098.70;2016988;71;24138;-74
2022/08/17 06:19:34;;;;;;;152.87;118.13;;;;;;;18.54;100.00;101102.21;1938471;74;24121;-74
2022/08/17 06:25:06;;;;;;;147.80;114.03;;;;;;;18.64;100.00;101103.28;2060489;69;26435;-75
2022/08/17 06:27:40;;;;;;;152.93;116.03;;;;;;;18.64;100.00;101103.28;2026201;71;24131;-74
2022/08/17 06:33:29;;;;;;;163.33;114.43;;;;;;;18.71;100.00;101101.36;2016721;71;33422;-74
2022/08/17 06:39:06;;;;;;;174.47;115.37;;;;;;;18.89;100.00;101114.24;2060154;69;25928;-74
2022/08/17 06:41:41;;;;;;;181.60;115.50;;;;;;;18.83;100.00;101120.36;2025135;71;26640;-74
2022/08/17 06:44:15;;;;;;;189.03;118.20;;;;;;;18.93;100.00;101128.47;2025867;71;24172;-74
2022/08/17 06:46:48;;;;;;;186.57;115.57;;;;;;;19.01;100.00;101134.08;2026188;71;24106;-73
2022/08/17 06:49:24;;;;;;;181.43;118.93;;;;;;;18.97;100.00;101142.12;2026536;70;24115;-74
2022/08/17 06:51:57;;;;;;;177.83;116.47;;;;;;;18.91;100.00;101142.86;2026379;71;24137;-72
2022/08/17 06:54:33;;;;;;;180.80;118.90;;;;;;;19.10;100.00;101152.36;2025842;71;24156;-73
2022/08/17 06:57:08;;;;;;;181.13;117.47;;;;;;;19.18;100.00;101162.77;2026205;71;24187;-73
2022/08/17 06:59:42;;;;;;;191.37;121.57;;;;;;;19.09;100.00;101167.59;1927510;74;26577;-72
2022/08/17 07:02:16;;;;;;;190.17;118.63;;;;;;;19.01;100.00;101168.44;1950461;73;24654;-73
2022/08/17 07:04:48;;;;;;;192.97;125.13;;;;;;;19.04;100.00;101171.41;1950267;73;24105;-71
2022/08/17 07:09:57;;;;;;;190.97;124.20;;;;;;;19.08;100.00;101164.55;1949989;73;24572;-71
2022/08/17 07:12:32;;;;;;;203.93;128.63;;;;;;;19.11;100.00;101158.24;1949926;73;24113;-72
2022/08/17 07:18:18;;;;;;;193.60;127.30;;;;;;;19.25;100.00;101149.59;2013626;71;31452;-73
2022/08/17 07:23:55;;;;;;;199.47;130.17;;;;;;;19.39;100.00;101158.06;2061842;69;25908;-71
2022/08/17 07:26:26;;;;;;;194.40;131.47;;;;;;;19.47;100.00;101168.50;2020068;71;24105;-73
2022/08/17 07:31:58;;;;;;;197.40;132.30;;;;;;;19.64;100.00;101173.23;2060388;69;28148;-72
2022/08/17 07:34:28;;;;;;;189.07;132.10;;;;;;;19.51;100.00;101190.61;2026291;71;24130;-72
2022/08/17 07:37:05;;;;;;;186.23;132.03;;;;;;;19.51;100.00;101188.40;1945464;73;24159;-72
2022/08/17 07:39:35;;;;;;;186.40;131.83;;;;;;;19.57;100.00;101190.43;1927724;74;24655;-71
2022/08/17 07:42:06;;;;;;;198.20;130.17;;;;;;;19.65;100.00;101196.61;1950172;73;24179;-72
2022/08/17 07:44:47;;;;;;;198.30;136.13;;;;;;;19.81;100.00;101199.94;1950140;73;24113;-72
2022/08/17 07:49:51;;;;;;;181.03;137.13;;;;;;;20.03;100.00;101209.27;1950134;73;24126;-72
2022/08/17 07:52:32;;;;;;;174.10;134.20;;;;;;;19.97;100.00;101201.61;1950224;73;24105;-72
2022/08/17 07:55:06;;;;;;;185.17;142.40;;;;;;;19.93;100.00;101214.16;1950152;73;24109;-72
2022/08/17 07:57:39;;;;;;;183.30;141.93;;;;;;;19.85;100.00;101228.30;1944644;73;24118;-71
2022/08/17 08:00:22;;;;;;;188.37;143.17;;;;;;;19.86;100.00;101232.17;1950354;73;24202;-71
2022/08/17 08:03:06;;;;;;;186.53;141.47;;;;;;;19.85;100.00;101231.92;1950063;73;24113;-71
2022/08/17 08:05:39;;;;;;;173.03;139.37;;;;;;;19.90;100.00;101227.50;1950184;73;24108;-72
2022/08/17 08:08:26;;;;;;;189.57;144.63;;;;;;;20.03;100.00;101227.03;1947477;73;24109;-71
2022/08/17 08:11:06;;;;;;;178.07;145.90;;;;;;;20.07;100.00;101228.61;1950173;73;24121;-71
2022/08/17 08:13:41;;;;;;;180.63;146.70;;;;;;;19.99;100.00;101226.05;1950048;73;26604;-73
2022/08/17 08:16:24;;;;;;;170.30;142.33;;;;;;;20.03;100.00;101219.14;1950141;73;24116;-72
2022/08/17 08:18:57;;;;;;;179.87;142.33;;;;;;;20.22;100.00;101213.91;1950242;73;24613;-72
2022/08/17 08:21:42;;;;;;;184.93;151.83;;;;;;;20.06;100.00;101219.89;1950219;73;24843;-72
2022/08/17 08:27:48;;;;;;;173.80;130.40;;;;;;;19.94;100.00;101217.78;2060642;69;26192;-73
2022/08/17 08:30:21;;;;;;;176.80;130.27;;;;;;;19.87;100.00;101225.95;1996554;71;24160;-72
2022/08/17 08:32:59;;;;;;;179.10;141.47;;;;;;;19.75;100.00;101234.30;1911703;75;24229;-72
2022/08/17 08:35:33;;;;;;;172.73;139.53;;;;;;;19.80;100.00;101227.07;1907275;75;24199;-72
2022/08/17 08:38:09;;;;;;;175.27;127.97;;;;;;;19.77;100.00;101225.73;1950957;73;24118;-72
2022/08/17 08:40:51;;;;;;;173.63;132.33;;;;;;;19.80;100.00;101231.30;1913179;75;26655;-72
2022/08/17 08:43:27;;;;;;;185.73;137.27;;;;;;;19.89;100.00;101226.45;1911456;75;26732;-73
2022/08/17 08:46:02;;;;;;;185.67;137.20;;;;;;;19.99;100.00;101227.46;1950757;73;24627;-73
2022/08/17 08:48:48;;;;;;;178.60;130.90;;;;;;;19.90;100.00;101234.55;1947009;73;24192;-72
2022/08/17 08:51:22;;;;;;;155.23;121.23;;;;;;;20.13;100.00;101242.74;1946696;74;24653;-73
2022/08/17 08:56:56;;;;;;;176.43;133.77;;;;;;;20.20;100.00;101230.33;2060455;69;26025;-74
2022/08/17 08:59:31;;;;;;;188.43;134.13;;;;;;;20.15;100.00;101239.02;2026242;70;26701;-73
2022/08/17 09:02:05;;;;;;;181.00;138.83;;;;;;;20.21;100.00;101245.52;2026277;71;24164;-73
2022/08/17 09:04:46;;;;;;;183.20;142.67;;;;;;;20.24;100.00;101235.53;2024765;70;24115;-73
2022/08/17 09:07:21;;;;;;;168.90;131.23;;;;;;;20.30;100.00;101233.63;2026043;70;24634;-74
2022/08/17 09:09:56;;;;;;;155.70;129.20;;;;;;;20.67;100.00;101236.09;2025687;71;24160;-74
2022/08/17 09:12:31;;;;;;;177.27;150.80;;;;;;;20.72;100.00;101238.72;2026117;71;24230;-73
2022/08/17 09:15:06;;;;;;;193.77;150.47;;;;;;;20.78;100.00;101242.17;2026009;70;24103;-72
2022/08/17 09:17:40;;;;;;;184.03;156.77;;;;;;;20.68;100.00;101242.58;2026163;70;24138;-72
2022/08/17 09:20:16;;;;;;;182.60;159.30;;;;;;;20.54;100.00;101247.69;2026298;70;24115;-72
2022/08/17 09:22:51;;;;;;;187.33;162.37;;;;;;;20.57;100.00;101245.00;2026416;71;24636;-72
2022/08/17 09:25:25;;;;;;;179.77;160.20;;;;;;;20.69;100.00;101252.12;2026583;71;24555;-72
2022/08/17 09:27:59;;;;;;;195.63;175.10;;;;;;;20.63;100.00;101249.25;1945312;73;24616;-72
2022/08/17 09:30:35;;;;;;;174.33;142.07;;;;;;;20.89;100.00;101242.81;1955351;72;24153;-73
2022/08/17 09:36:25;;;;;;;167.85;149.70;;;;;;;21.19;100.00;101230.85;2016979;71;30892;-74
2022/08/17 09:39:00;;;;;;;158.60;141.30;;;;;;;21.36;100.00;101253.87;1983781;72;24155;-74
2022/08/17 09:44:50;;;;;;;171.03;153.60;;;;;;;21.27;100.00;101251.13;2006690;71;31394;-75
2022/08/17 09:47:24;;;;;;;155.03;138.77;;;;;;;21.22;100.00;101267.50;1966473;72;24586;-74
2022/08/17 09:52:56;;;;;;;150.47;135.37;;;;;;;21.15;100.00;101256.73;2060541;69;26419;-75
2022/08/17 09:55:30;;;;;;;155.97;140.47;;;;;;;21.17;100.00;101260.06;1982054;72;24141;-74
2022/08/17 09:58:04;;;;;;;161.17;145.50;;;;;;;21.07;100.00;101261.02;1981180;72;24105;-74
2022/08/17 10:00:37;;;;;;;155.50;140.57;;;;;;;20.95;100.00;101260.97;1981875;72;24125;-72
2022/08/17 10:03:44;;;;;;;151.67;136.90;;;;;;;21.01;100.00;101260.40;1981693;72;24101;-72
2022/08/17 10:06:18;;;;;;;150.87;136.70;;;;;;;20.96;100.00;101266.28;1981947;72;24097;-72
2022/08/17 10:08:52;;;;;;;150.37;136.47;;;;;;;21.08;100.00;101273.98;1982150;72;24128;-74
2022/08/17 10:12:14;;;;;;;136.57;124.00;;;;;;;21.00;100.00;101277.72;1982110;72;24650;-73
2022/08/17 10:14:07;;;;;;;142.50;129.18;;;;;;;21.19;100.00;101268.17;1976089;72;24109;-72
2022/08/17 10:16:40;;;;;;;147.82;134.22;;;;;;;21.21;100.00;101272.91;1981627;72;24145;-72
2022/08/17 10:19:15;;;;;;;150.55;137.05;;;;;;;21.27;100.00;101272.91;1981978;72;24141;-72
2022/08/17 10:26:59;;;;;;;165.45;151.20;;;;;;;21.68;100.00;101282.72;1982122;72;24572;-72
2022/08/17 10:32:34;;;;;;;136.05;124.80;;;;;;;21.89;100.00;101267.67;2060346;69;25897;-74
2022/08/17 10:35:14;;;;;;;175.87;162.05;;;;;;;21.84;100.00;101281.45;1982012;72;24112;-73
2022/08/17 10:37:52;;;;;;;166.73;153.17;;;;;;;21.92;100.00;101276.30;1985725;72;24209;-74
2022/08/17 10:40:33;;;;;;;133.95;123.45;;;;;;;22.16;100.00;101280.55;1981557;72;24155;-73
2022/08/17 10:43:13;;;;;;;135.70;125.12;;;;;;;22.34;100.00;101281.73;1982105;72;24189;-74
2022/08/17 10:45:50;;;;;;;135.35;124.95;;;;;;;22.33;100.00;101275.28;1981542;72;24155;-74
2022/08/17 10:48:31;;;;;;;133.10;122.17;;;;;;;22.38;100.00;101272.19;1982305;72;24222;-74
2022/08/17 10:51:07;;;;;;;125.25;115.75;;;;;;;22.32;100.00;101265.72;1981913;72;26669;-74
2022/08/17 10:54:00;;;;;;;130.20;119.85;;;;;;;22.19;100.00;101264.89;1946861;74;24637;-73
2022/08/17 10:56:48;;;;;;;124.87;115.28;;;;;;;22.16;100.00;101262.78;1946794;74;24578;-74
2022/08/17 10:59:50;;;;;;;126.92;117.08;;;;;;;22.18;100.00;101254.75;1946806;74;24628;-72
2022/08/17 11:02:28;;;;;;;113.75;105.05;;;;;;;22.27;100.00;101249.80;1946856;74;24128;-72
2022/08/17 11:09:29;;;;;;;109.78;101.47;;;;;;;22.53;100.00;101233.26;1995470;71;31418;-74
2022/08/17 11:15:27;;;;;;;119.05;110.22;;;;;;;22.72;100.00;101235.47;2060561;69;25681;-73
2022/08/17 11:18:13;;;;;;;113.32;105.50;;;;;;;22.78;100.00;101245.97;2026172;70;24099;-72
2022/08/17 11:24:24;;;;;;;105.35;98.45;;;;;;;22.66;100.00;101222.73;2060411;69;25960;-73
2022/08/17 11:30:48;;;;;;;98.27;91.95;;;;;;;22.42;100.00;101219.95;2029753;69;26525;-74
2022/08/17 11:33:53;;;;;;;99.35;92.70;;;;;;;22.45;100.00;101227.73;1990001;72;24132;-73
2022/08/17 11:37:00;;;;;;;97.75;91.42;;;;;;;22.65;100.00;101226.73;1989894;72;24190;-73
2022/08/17 11:39:54;;;;;;;95.10;88.85;;;;;;;22.67;100.00;101217.30;1964411;72;24171;-72
2022/08/17 11:42:33;;;;;;;97.60;91.17;;;;;;;22.77;100.00;101217.40;1986630;71;24151;-72
2022/08/17 11:54:05;;;;;;;98.52;91.92;;;;;;;23.18;100.00;101194.94;2060518;69;26467;-74
2022/08/17 11:56:42;;;;;;;104.92;98.20;;;;;;;23.15;100.00;101200.72;1982239;72;24178;-74
2022/08/17 12:03:23;;;;;;;95.47;89.13;;;;;;;23.06;100.00;101181.66;2060514;69;26037;-74
2022/08/17 12:06:02;;;;;;;94.92;88.47;;;;;;;22.96;100.00;101194.33;1981979;72;24090;-74
2022/08/17 12:08:36;;;;;;;98.97;92.47;;;;;;;22.99;100.00;101185.09;1982039;72;24637;-74
2022/08/17 12:11:09;;;;;;;94.92;88.87;;;;;;;23.08;100.00;101176.44;1981704;72;24206;-74
2022/08/17 12:13:44;;;;;;;94.67;88.55;;;;;;;23.29;100.00;101174.19;1982076;72;24101;-73
2022/08/17 12:16:17;;;;;;;94.00;88.15;;;;;;;23.31;100.00;101175.27;1982028;72;24109;-71
2022/08/17 12:18:57;;;;;;;90.07;84.58;;;;;;;23.29;100.00;101171.36;1971809;72;24203;-71
2022/08/17 12:21:52;;;;;;;85.32;80.03;;;;;;;23.31;100.00;101176.67;1967923;73;24118;-72
2022/08/17 12:24:33;;;;;;;85.22;80.12;;;;;;;23.23;100.00;101174.84;2012567;71;24616;-72
2022/08/17 12:27:07;;;;;;;85.22;80.28;;;;;;;23.19;100.00;101174.71;2012208;71;24609;-72
2022/08/17 12:29:39;;;;;;;89.00;83.70;;;;;;;23.27;100.00;101172.33;1994043;71;24214;-73
2022/08/17 12:35:20;;;;;;;88.03;82.75;;;;;;;23.46;100.00;101167.38;2060442;69;26020;-73
2022/08/17 12:37:52;;;;;;;84.92;79.82;;;;;;;23.52;100.00;101174.44;1982032;72;24545;-73
2022/08/17 12:40:25;;;;;;;83.22;78.10;;;;;;;23.53;100.00;101170.42;1981902;72;24101;-73
2022/08/17 12:43:01;;;;;;;85.07;80.05;;;;;;;23.53;100.00;101174.68;1981937;72;24098;-73
2022/08/17 12:45:35;;;;;;;86.50;81.60;;;;;;;23.62;100.00;101168.83;1981957;72;24186;-71
2022/08/17 12:48:08;;;;;;;81.90;77.20;;;;;;;23.62;100.00;101163.95;1982064;72;24137;-70
2022/08/17 12:50:41;;;;;;;82.40;77.58;;;;;;;23.62;100.00;101165.99;1981870;72;24198;-71
2022/08/17 12:53:14;;;;;;;81.90;77.27;;;;;;;23.62;100.00;101166.78;1981839;72;24190;-71
2022/08/17 12:55:46;;;;;;;80.17;75.42;;;;;;;23.61;100.00;101169.42;1981980;72;24202;-71
2022/08/17 12:58:23;;;;;;;83.00;78.02;;;;;;;23.66;100.00;101174.80;1982094;72;24540;-72
2022/08/17 13:00:58;;;;;;;81.28;76.45;;;;;;;23.57;100.00;101176.42;1981856;72;24100;-72
2022/08/17 13:03:31;;;;;;;76.55;72.08;;;;;;;23.50;100.00;101173.38;1982016;72;24637;-72
2022/08/17 13:06:05;;;;;;;76.77;72.37;;;;;;;23.47;100.00;101171.88;1981402;72;24121;-71
2022/08/17 13:08:38;;;;;;;79.45;74.75;;;;;;;23.49;100.00;101171.72;1981888;72;24202;-71
2022/08/17 13:11:11;;;;;;;76.12;71.45;;;;;;;23.46;100.00;101171.05;1982004;72;24552;-70
2022/08/17 13:13:44;;;;;;;74.85;70.42;;;;;;;23.45;100.00;101167.14;1980980;72;24113;-71
2022/08/17 13:16:20;;;;;;;76.28;71.75;;;;;;;23.43;100.00;101175.17;1981976;72;24113;-71
2022/08/17 13:18:54;;;;;;;79.25;74.82;;;;;;;23.40;100.00;101170.25;1981940;72;24178;-72